Data for 01/10/2017

Time Sea-Level Adjusted Pressure Absolute Pressure Temperature Relative Humidity Dew Point   
(mb) (inHg) (mb) (inHg) (C) (F) (%) (C) (F)
00:05 1006 29.71 835 24.66 -2 28.3 51 -10.8 12.6
00:10 1006 29.71 835 24.66 -2.1 28.2 53 -10.6 13
00:15 1006 29.71 835 24.66 -2.4 27.8 53 -10.6 12.8
00:20 1006 29.71 835 24.66 -2.6 27.3 54 -10.7 12.7
00:25 1006 29.71 835 24.66 -2.6 27.3 50 -11.6 11.2
00:30 1006 29.71 835 24.66 -2.1 28.2 49 -11.5 11.4
00:35 1006 29.71 835 24.66 -1.9 28.5 48 -11.6 11.2
00:40 1006 29.71 835 24.66 -2 28.5 49 -11.3 11.6
00:45 1006 29.71 835 24.66 -2 28.3 48 -11.6 11.1
00:50 1006 29.71 835 24.66 -2 28.3 48 -11.6 11.1
00:55 1006 29.71 835 24.66 -2 28.3 47 -11.8 10.7
01:00 1006 29.71 835 24.66 -2 28.3 46 -12.1 10.3
01:05 1006 29.71 835 24.66 -2 28.4 46 -12.1 10.3
01:10 1006 29.71 835 24.66 -2 28.5 46 -12.1 10.2
01:15 1006 29.71 835 24.66 -2 28.3 48 -11.7 11
01:20 1006 29.71 835 24.66 -2.3 27.9 49 -11.7 10.9
01:25 1006 29.71 835 24.66 -2.5 27.4 49 -11.8 10.8
01:30 1005 29.68 835 24.66 -2.7 27.1 50 -11.9 10.6
01:35 1005 29.68 835 24.66 -2.8 27 49 -12 10.4
01:40 1005 29.68 835 24.66 -2.8 26.9 48 -12.3 9.8
01:45 1005 29.68 835 24.66 -2.8 27 47 -12.5 9.4
01:50 1005 29.68 835 24.66 -2.7 27.1 47 -12.5 9.5
01:55 1005 29.68 835 24.66 -2.7 27.1 46 -12.7 9.2
02:00 1005 29.68 835 24.66 -2.5 27.4 46 -12.8 9
02:05 1005 29.68 835 24.66 -2.4 27.6 45 -12.7 9.2
02:10 1005 29.68 834 24.63 -2.4 27.7 45 -12.8 8.9
02:15 1005 29.68 835 24.66 -2.4 27.7 45 -12.8 8.9
02:20 1005 29.68 835 24.66 -2.4 27.6 44 -13.2 8.2
02:25 1005 29.68 835 24.66 -2.3 27.8 44 -13.1 8.4
02:30 1005 29.68 834 24.63 -2.4 27.8 43 -13.4 7.8
02:35 1005 29.68 835 24.66 -2.4 27.7 43 -13.4 7.9
02:40 1005 29.68 834 24.63 -2.3 27.8 44 -13 8.6
02:45 1005 29.68 835 24.66 -2.4 27.8 44 -13.1 8.4
02:50 1005 29.68 835 24.66 -2.4 27.7 43 -13.3 8.1
02:55 1005 29.68 835 24.66 -2.4 27.6 44 -13.2 8.2
03:00 1005 29.68 835 24.66 -2.5 27.5 44 -13.2 8.2
03:05 1006 29.71 835 24.66 -2.5 27.6 44 -13 8.6
03:10 1006 29.71 835 24.66 -2.6 27.3 45 -12.9 8.7
03:15 1006 29.71 835 24.66 -2.8 27 46 -12.9 8.9
03:20 1006 29.71 835 24.66 -2.9 26.7 46 -12.9 8.8
03:25 1005 29.68 835 24.66 -3.1 26.4 48 -12.7 9.1
03:30 1005 29.68 835 24.66 -3.2 26.2 47 -13.1 8.5
03:35 1005 29.68 834 24.63 -3.2 26.3 47 -13.1 8.5
03:40 1005 29.68 834 24.63 -3.1 26.4 47 -13 8.6
03:45 1005 29.68 834 24.63 -3.1 26.5 46 -13 8.6
03:50 1005 29.68 834 24.63 -3.1 26.5 47 -12.8 8.9
03:55 1005 29.68 834 24.63 -3.1 26.4 46 -13.1 8.5
04:00 1005 29.68 834 24.63 -3 26.5 47 -12.9 8.8
04:05 1005 29.68 834 24.63 -3.1 26.4 47 -12.9 8.8
04:10 1005 29.68 834 24.63 -3.2 26.3 48 -12.8 9
04:15 1005 29.68 834 24.63 -3.1 26.4 49 -12.5 9.5
04:20 1005 29.68 834 24.63 -3.3 26.1 49 -12.4 9.6
04:25 1005 29.68 834 24.63 -3.4 25.9 50 -12.5 9.5
04:30 1005 29.68 834 24.63 -3.3 26 50 -12.4 9.6
04:35 1004 29.65 834 24.63 -3.2 26.3 46 -13.3 8.1
04:40 1004 29.65 834 24.63 -2.8 27 46 -13 8.6
04:45 1004 29.65 834 24.63 -2.9 26.8 45 -13.1 8.3
04:50 1004 29.65 834 24.63 -2.8 27 46 -12.8 9
04:55 1004 29.65 834 24.63 -3 26.6 48 -12.5 9.4
05:00 1004 29.65 833 24.6 -3.4 26 49 -12.6 9.2
05:05 1004 29.65 833 24.6 -3.9 25 51 -12.5 9.4
05:10 1004 29.65 834 24.63 -4.2 24.5 52 -12.6 9.3
05:15 1004 29.65 834 24.63 -4.4 24.1 54 -12.5 9.6
05:20 1004 29.65 834 24.63 -4.6 23.8 54 -12.6 9.3
05:25 1004 29.65 833 24.6 -4.6 23.7 53 -12.9 8.8
05:30 1004 29.65 833 24.6 -4.6 23.8 52 -12.9 8.8
05:35 1004 29.65 833 24.6 -4.4 24 51 -13.1 8.4
05:40 1004 29.65 833 24.6 -4.2 24.5 51 -12.9 8.8
05:45 1004 29.65 833 24.6 -4.2 24.4 50 -13.1 8.4
05:50 1004 29.65 833 24.6 -4 24.8 50 -12.9 8.7
05:55 1004 29.65 833 24.6 -4.1 24.7 50 -13 8.5
06:00 1004 29.65 833 24.6 -4.1 24.7 50 -13 8.6
06:05 1004 29.65 833 24.6 -4.3 24.3 52 -12.7 9.1
06:10 1004 29.65 833 24.6 -4.6 23.8 54 -12.6 9.2
06:15 1004 29.65 833 24.6 -4.9 23.1 54 -12.8 8.9
06:20 1004 29.65 833 24.6 -5 22.9 56 -12.6 9.4
06:25 1004 29.65 833 24.6 -5.2 22.7 54 -13.1 8.5
06:30 1004 29.65 833 24.6 -5.1 22.9 54 -13 8.6
06:35 1004 29.65 833 24.6 -5 23 52 -13.4 7.8
06:40 1004 29.65 833 24.6 -4.4 24 48 -13.9 7
06:45 1004 29.65 833 24.6 -3.7 25.4 46 -13.7 7.4
06:50 1004 29.65 833 24.6 -3.8 25.1 49 -12.9 8.7
06:55 1004 29.65 833 24.6 -4.2 24.4 51 -13 8.6
07:00 1004 29.65 833 24.6 -4.3 24.3 49 -13.5 7.8
07:05 1004 29.65 833 24.6 -4.2 24.5 52 -12.5 9.4
07:10 1004 29.65 833 24.6 -4.4 24.2 50 -13.3 8.1
07:15 1004 29.65 833 24.6 -4.3 24.3 51 -13 8.7
07:20 1004 29.65 833 24.6 -4.4 24.1 51 -13.2 8.3
07:25 1004 29.65 833 24.6 -4.4 24 50 -13.4 7.8
07:30 1004 29.65 833 24.6 -4.3 24.2 52 -12.7 9.2
07:35 1004 29.65 833 24.6 -4.5 24 54 -12.3 9.8
07:40 1004 29.65 833 24.6 -4.7 23.6 52 -13.2 8.3
07:45 1004 29.65 833 24.6 -4.5 23.9 51 -13.3 8.1
07:50 1004 29.65 833 24.6 -4.4 24.1 53 -12.6 9.4
07:55 1004 29.65 833 24.6 -4.4 24 52 -13 8.7
08:00 1004 29.65 833 24.6 -4.5 24 53 -12.7 9.1
08:05 1003 29.62 833 24.6 -4.5 23.9 54 -12.5 9.5
08:10 1003 29.62 833 24.6 -4.7 23.6 52 -13.1 8.4
08:15 1003 29.62 833 24.6 -4.3 24.3 53 -12.4 9.6
08:20 1003 29.62 833 24.6 -4.5 23.9 55 -12.3 9.9
08:25 1004 29.65 833 24.6 -4.3 24.2 54 -12.4 9.8
08:30 1004 29.65 833 24.6 -4.4 24.1 55 -12.2 10
08:35 1004 29.65 833 24.6 -4.5 24 57 -11.8 10.7
08:40 1004 29.65 833 24.6 -4.8 23.4 59 -11.5 11.3
08:45 1004 29.65 833 24.6 -4.9 23.2 58 -11.9 10.6
08:50 1004 29.65 833 24.6 -4.5 23.8 56 -12 10.4
08:55 1004 29.65 833 24.6 -4.1 24.6 56 -11.7 10.9
09:00 1003 29.62 833 24.6 -3.8 25.1 56 -11.4 11.5
09:05 1003 29.62 833 24.6 -3.9 25 57 -11.3 11.7
09:10 1003 29.62 833 24.6 -4.1 24.7 57 -11.4 11.5
09:15 1003 29.62 833 24.6 -4.1 24.7 57 -11.3 11.7
09:20 1003 29.62 832 24.57 -4.3 24.3 58 -11.3 11.6
09:25 1003 29.62 832 24.57 -4.4 24.2 58 -11.3 11.6
09:30 1003 29.62 832 24.57 -4.2 24.5 57 -11.4 11.5
09:35 1003 29.62 832 24.57 -4 24.8 57 -11.4 11.6
09:40 1003 29.62 832 24.57 -3.9 24.9 57 -11.4 11.5
09:45 1003 29.62 832 24.57 -3.8 25.2 56 -11.2 11.8
09:50 1003 29.62 832 24.57 -3.7 25.3 54 -11.7 11
09:55 1003 29.62 832 24.57 -3.4 25.9 54 -11.5 11.2
10:00 1003 29.62 832 24.57 -3.1 26.4 53 -11.5 11.3
10:05 1003 29.62 832 24.57 -3.1 26.4 55 -10.9 12.4
10:10 1003 29.62 832 24.57 -3.2 26.2 55 -11 12.2
10:15 1003 29.62 832 24.57 -3.1 26.4 53 -11.5 11.3
10:20 1003 29.62 832 24.57 -2.9 26.8 54 -11 12.1
10:25 1003 29.62 832 24.57 -2.6 27.4 52 -11 12.2
10:30 1003 29.62 832 24.57 -2.4 27.7 52 -10.9 12.4
10:35 1003 29.62 832 24.57 -2.4 27.7 52 -10.9 12.3
10:40 1003 29.62 832 24.57 -2.2 28.1 49 -11.4 11.5
10:45 1003 29.62 832 24.57 -2.2 28.1 49 -11.6 11.1
10:50 1003 29.62 832 24.57 -2.2 28 50 -11.4 11.5
10:55 1003 29.62 832 24.57 -2 28.3 50 -11.2 11.8
11:00 1003 29.62 832 24.57 -1.7 28.9 49 -11 12.2
11:05 1003 29.62 832 24.57 -1.4 29.5 47 -11.2 11.8
11:10 1003 29.62 832 24.57 -1.3 29.6 47 -11.2 11.8
11:15 1003 29.62 832 24.57 -1.6 29.2 47 -11.5 11.2
11:20 1003 29.62 832 24.57 -1.9 28.6 49 -11.2 11.8
11:25 1003 29.62 832 24.57 -1.8 28.8 50 -11 12.2
11:30 1003 29.62 832 24.57 -1.4 29.6 48 -11 12.1
11:35 1002 29.59 832 24.57 -1.4 29.4 48 -11.2 11.9
11:40 1002 29.59 832 24.57 -1.5 29.2 49 -10.9 12.3
11:45 1002 29.59 831 24.54 -1.1 29.9 46 -11.2 11.8
11:50 1002 29.59 831 24.54 -1.4 29.6 47 -11.2 11.8
11:55 1002 29.59 831 24.54 -1 30.2 47 -11 12.2
12:00 1002 29.59 831 24.54 -0.5 31 46 -10.8 12.5
12:05 1002 29.59 831 24.54 -0.3 31.5 45 -10.9 12.3
12:10 1002 29.59 831 24.54 -0.3 31.5 46 -10.7 12.8
12:15 1002 29.59 831 24.54 -0.6 30.9 45 -11.1 12
12:20 1002 29.59 831 24.54 -0.7 30.7 46 -11 12.2
12:25 1002 29.59 831 24.54 -0.6 30.9 46 -10.8 12.6
12:30 1002 29.59 831 24.54 -0.6 31 46 -10.8 12.5
12:35 1002 29.59 831 24.54 -0.7 30.7 46 -11.1 12
12:40 1002 29.59 831 24.54 -0.7 30.7 45 -11.2 11.9
12:45 1002 29.59 831 24.54 -0.4 31.2 46 -10.7 12.7
12:50 1002 29.59 831 24.54 -0.3 31.4 46 -10.5 13.2
12:55 1002 29.59 831 24.54 -0.2 31.7 45 -10.7 12.8
13:00 1001 29.56 831 24.54 -0 31.9 46 -10.3 13.5
13:05 1001 29.56 830 24.51 0.2 32.3 45 -10.5 13.1
13:10 1001 29.56 830 24.51 0.5 32.9 45 -10.1 13.8
13:15 1001 29.56 830 24.51 0.6 33.1 46 -9.7 14.5
13:20 1001 29.56 830 24.51 0.6 33.1 47 -9.5 14.9
13:25 1001 29.56 830 24.51 0.8 33.4 48 -9.1 15.6
13:30 1001 29.56 830 24.51 1 33.8 46 -9.2 15.4
13:35 1001 29.56 830 24.51 1 33.8 47 -9 15.8
13:40 1001 29.56 830 24.51 1 33.8 49 -8.6 16.5
13:45 1001 29.56 830 24.51 1.2 34.1 47 -9 15.8
13:50 1001 29.56 830 24.51 1.4 34.5 45 -9.4 15.1
13:55 1001 29.56 830 24.51 1.5 34.6 43 -9.7 14.6
14:00 1001 29.56 830 24.51 1.5 34.6 45 -9.3 15.3
14:05 1001 29.56 830 24.51 1.4 34.6 45 -9.2 15.5
14:10 1001 29.56 830 24.51 1.2 34.2 46 -9.1 15.5
14:15 1001 29.56 830 24.51 1.2 34.1 46 -9.1 15.7
14:20 1001 29.56 830 24.51 1.1 34 47 -9 15.9
14:25 1001 29.56 830 24.51 1.2 34.1 47 -8.8 16.1
14:30 1001 29.56 830 24.51 1.2 34.1 46 -9.3 15.2
14:35 1001 29.56 830 24.51 1.3 34.4 47 -8.8 16.1
14:40 1001 29.56 830 24.51 1.3 34.4 48 -8.6 16.4
14:45 1001 29.56 830 24.51 1.4 34.6 47 -8.7 16.3
14:50 1001 29.56 830 24.51 1.6 34.8 47 -8.6 16.5
14:55 1001 29.56 830 24.51 1.5 34.8 47 -8.5 16.7
15:00 1001 29.56 830 24.51 1.5 34.7 46 -8.8 16.2
15:05 1001 29.56 830 24.51 1.5 34.7 47 -8.6 16.6
15:10 1001 29.56 830 24.51 1.4 34.6 47 -8.6 16.6
15:15 1001 29.56 830 24.51 1.3 34.4 47 -8.7 16.4
15:20 1001 29.56 830 24.51 1.2 34.2 48 -8.7 16.3
15:25 1001 29.56 830 24.51 1.1 34.1 47 -8.8 16.1
15:30 1001 29.56 830 24.51 1.2 34.1 47 -8.9 15.9
15:35 1001 29.56 830 24.51 1.2 34.2 47 -8.8 16.2
15:40 1001 29.56 830 24.51 1.2 34.2 46 -9.1 15.6
15:45 1001 29.56 830 24.51 1.1 34 45 -9.7 14.6
15:50 1001 29.56 830 24.51 1.1 34 44 -9.8 14.4
15:55 1001 29.56 830 24.51 1.2 34.1 45 -9.6 14.8
16:00 1001 29.56 830 24.51 1.1 34.1 44 -9.9 14.3
16:05 1001 29.56 830 24.51 1.1 34 44 -9.8 14.3
16:10 1001 29.56 830 24.51 1 33.8 45 -9.7 14.6
16:15 1001 29.56 830 24.51 0.9 33.7 45 -9.6 14.7
16:20 1001 29.56 830 24.51 0.9 33.7 44 -9.9 14.2
16:25 1001 29.56 830 24.51 0.9 33.6 44 -9.9 14.2
16:30 1001 29.56 830 24.51 0.8 33.5 45 -9.9 14.2
16:35 1001 29.56 830 24.51 0.8 33.5 45 -9.7 14.5
16:40 1001 29.56 830 24.51 0.8 33.5 46 -9.6 14.7
16:45 1001 29.56 830 24.51 0.8 33.5 46 -9.4 15
16:50 1001 29.56 830 24.51 0.8 33.4 47 -9.3 15.3
16:55 1001 29.56 830 24.51 0.7 33.3 47 -9.4 15.1
17:00 1001 29.56 830 24.51 0.7 33.3 49 -8.9 15.9
17:05 1001 29.56 830 24.51 0.4 32.8 55 -7.7 18.1
17:10 1001 29.56 830 24.51 0.1 32.3 58 -7.2 19
17:15 1001 29.56 830 24.51 -0 31.9 59 -7.2 19.1
17:20 1001 29.56 830 24.51 -0.1 31.8 59 -7.3 18.9
17:25 1001 29.56 830 24.51 -0.2 31.6 61 -7 19.4
17:30 1001 29.56 830 24.51 -0.4 31.3 62 -6.8 19.7
17:35 1001 29.56 830 24.51 -0.5 31.1 63 -6.6 20.1
17:40 1001 29.56 830 24.51 -0.6 30.9 64 -6.6 20.1
17:45 1001 29.56 830 24.51 -0.6 30.9 61 -7.2 19.1
17:50 1001 29.56 830 24.51 -0.4 31.3 61 -7.1 19.2
17:55 1001 29.56 830 24.51 -0.3 31.4 60 -7.2 19.1
18:00 1001 29.56 830 24.51 -0.3 31.4 60 -7.1 19.2
18:05 1000 29.53 830 24.51 -0.4 31.3 61 -6.9 19.5
18:10 1000 29.53 830 24.51 -0.5 31.1 62 -6.9 19.6
18:15 1000 29.53 830 24.51 -0.5 31.1 61 -7.1 19.1
18:20 1000 29.53 830 24.51 -0.3 31.4 60 -7.2 19
18:25 1001 29.56 830 24.51 -0.2 31.6 59 -7.2 19.1
18:30 1001 29.56 830 24.51 -0.2 31.7 59 -7.2 19.1
18:35 1001 29.56 830 24.51 -0.1 31.8 60 -7 19.3
18:40 1001 29.56 830 24.51 -0.1 31.7 60 -7 19.3
18:45 1001 29.56 830 24.51 -0.1 31.8 60 -7 19.4
18:50 1001 29.56 830 24.51 -0.1 31.7 60 -7 19.3
18:55 1001 29.56 830 24.51 -0.1 31.7 60 -7 19.4
19:00 1001 29.56 830 24.51 -0.2 31.7 60 -7 19.4
19:05 1001 29.56 830 24.51 -0.2 31.6 60 -7 19.4
19:10 1001 29.56 830 24.51 -0.2 31.6 61 -6.8 19.7
19:15 1001 29.56 830 24.51 -0.2 31.6 61 -6.8 19.7
19:20 1001 29.56 830 24.51 -0.3 31.4 62 -6.8 19.8
19:25 1001 29.56 830 24.51 -0.6 30.8 59 -7.7 18.2
19:30 1001 29.56 830 24.51 -1.5 29.3 62 -7.9 17.7
19:35 1001 29.56 830 24.51 -2.2 28 63 -8.4 16.8
19:40 1001 29.56 830 24.51 -2.8 26.9 64 -8.6 16.4
19:45 1001 29.56 830 24.51 -3.1 26.4 65 -8.9 16
19:50 1001 29.56 831 24.54 -3.8 25.2 65 -9.5 15
19:55 1002 29.59 831 24.54 -4.5 23.9 67 -9.7 14.5
20:00 1002 29.59 831 24.54 -5.1 22.8 69 -9.9 14.1
20:05 1002 29.59 831 24.54 -5.7 21.7 73 -9.9 14.2
20:10 1002 29.59 831 24.54 -6.6 20.2 75 -10.3 13.5
20:15 1002 29.59 831 24.54 -7.4 18.7 78 -10.5 13.1
20:20 1002 29.59 832 24.57 -8.5 16.7 82 -11 12.2
20:25 1002 29.59 832 24.57 -8.9 16 83 -11.2 11.8
20:30 1002 29.59 832 24.57 -9 15.7 83 -11.5 11.3
20:35 1003 29.62 832 24.57 -9.3 15.2 84 -11.6 11.2
20:40 1003 29.62 832 24.57 -9.4 15.2 83 -11.7 10.9
20:45 1003 29.62 832 24.57 -9.5 14.9 84 -11.7 10.9
20:50 1003 29.62 832 24.57 -9.7 14.5 85 -11.7 10.9
20:55 1003 29.62 833 24.6 -10.9 12.4 78 -14.1 6.7
21:00 1003 29.62 833 24.6 -12.8 9 77 -16 3.3
21:05 1004 29.65 833 24.6 -14.2 6.5 79 -17.1 1.2
21:10 1004 29.65 833 24.6 -15 5.1 79 -17.8 -0.1
21:15 1004 29.65 833 24.6 -15.5 4.1 78 -18.5 -1.2
21:20 1004 29.65 833 24.6 -16 3.2 77 -19.2 -2.5
21:25 1004 29.65 833 24.6 -16.4 2.5 76 -19.7 -3.5
21:30 1004 29.65 833 24.6 -16.8 1.8 76 -20.1 -4.1
21:35 1004 29.65 833 24.6 -17 1.3 77 -20.2 -4.3
21:40 1004 29.65 833 24.6 -17.2 1.1 77 -20.3 -4.6
21:45 1004 29.65 833 24.6 -17.4 0.7 77 -20.5 -4.9
21:50 1004 29.65 833 24.6 -17.5 0.5 75 -20.9 -5.7
21:55 1004 29.65 833 24.6 -17.7 0.2 75 -21.1 -6.1
22:00 1004 29.65 833 24.6 -17.8 0 74 -21.3 -6.3
22:05 1004 29.65 833 24.6 -17.8 -0.1 74 -21.4 -6.5
22:10 1004 29.65 833 24.6 -17.8 -0 73 -21.5 -6.6
22:15 1004 29.65 833 24.6 -17.9 -0.2 74 -21.4 -6.5
22:20 1004 29.65 833 24.6 -18 -0.4 75 -21.5 -6.6
22:25 1004 29.65 833 24.6 -18 -0.4 74 -21.5 -6.7
22:30 1004 29.65 834 24.63 -18.1 -0.5 74 -21.6 -6.8
22:35 1005 29.68 834 24.63 -18.1 -0.5 74 -21.6 -6.9
22:40 1005 29.68 834 24.63 -18.1 -0.5 75 -21.5 -6.7
22:45 1005 29.68 834 24.63 -18.1 -0.6 75 -21.5 -6.7
22:50 1005 29.68 834 24.63 -18.2 -0.7 76 -21.5 -6.7
22:55 1005 29.68 834 24.63 -18.1 -0.5 76 -21.3 -6.3
23:00 1005 29.68 834 24.63 -18 -0.3 75 -21.3 -6.4
23:05 1005 29.68 834 24.63 -18.1 -0.5 75 -21.6 -6.8
23:10 1005 29.68 834 24.63 -18.1 -0.6 73 -21.8 -7.3
23:15 1005 29.68 834 24.63 -18.1 -0.5 71 -22.1 -7.8
23:20 1005 29.68 834 24.63 -18.1 -0.5 71 -22.1 -7.7
23:25 1005 29.68 834 24.63 -18 -0.4 71 -22.1 -7.8
23:30 1005 29.68 834 24.63 -18 -0.3 70 -22.2 -7.9
23:35 1005 29.68 834 24.63 -18 -0.3 71 -22 -7.7
23:40 1005 29.68 834 24.63 -18 -0.4 71 -22.1 -7.8
23:45 1005 29.68 834 24.63 -18.1 -0.6 71 -22.2 -8
23:50 1005 29.68 834 24.63 -18.2 -0.7 70 -22.4 -8.3
23:55 1005 29.68 834 24.63 -18.2 -0.8 69 -22.6 -8.7
24:00 1005 29.68 834 24.63 -18.2 -0.8 68 -22.7 -8.8